createdAt,value
2022-09-15T00:01:10.375Z,12.43
2022-09-15T00:03:45.258Z,11.10
2022-09-15T00:06:12.722Z,12.73
2022-09-15T00:08:40.481Z,11.02
2022-09-15T00:11:17.573Z,14.80
2022-09-15T00:13:45.274Z,15.23
2022-09-15T00:16:15.455Z,13.52
2022-09-15T00:18:45.284Z,13.57
2022-09-15T00:21:19.000Z,13.63
2022-09-15T00:23:46.942Z,13.27
2022-09-15T00:26:17.671Z,14.80
2022-09-15T00:28:45.139Z,11.82
2022-09-15T00:31:17.018Z,11.52
2022-09-15T00:33:51.426Z,14.45
2022-09-15T00:36:20.005Z,12.77
2022-09-15T00:38:47.773Z,16.90
2022-09-15T00:41:21.571Z,12.55
2022-09-15T00:43:54.844Z,16.05
2022-09-15T00:46:44.113Z,17.00
2022-09-15T00:49:14.335Z,18.67
2022-09-15T00:51:59.005Z,16.50
2022-09-15T00:54:31.730Z,15.45
2022-09-15T00:57:03.128Z,16.05
2022-09-15T00:59:42.597Z,14.77
2022-09-15T01:02:18.358Z,13.88
2022-09-15T01:04:45.993Z,14.23
2022-09-15T01:07:16.992Z,14.27
2022-09-15T01:09:58.583Z,10.98
2022-09-15T01:12:27.304Z,11.63
2022-09-15T01:14:55.089Z,11.73
2022-09-15T01:17:31.850Z,13.25
2022-09-15T01:20:38.319Z,12.73
2022-09-15T01:23:19.950Z,10.68
2022-09-15T01:26:18.083Z,14.32
2022-09-15T01:29:03.875Z,13.05
2022-09-15T01:32:03.744Z,12.98
2022-09-15T01:34:38.563Z,11.82
2022-09-15T01:37:14.633Z,14.20
2022-09-15T01:39:45.878Z,11.93
2022-09-15T01:42:15.784Z,14.32
2022-09-15T01:44:53.128Z,13.77
2022-09-15T01:47:22.680Z,12.02
2022-09-15T01:49:54.860Z,15.68
2022-09-15T01:52:24.339Z,17.30
2022-09-15T01:54:57.329Z,15.07
2022-09-15T01:57:25.441Z,16.52
2022-09-15T01:59:55.202Z,12.77
2022-09-15T02:02:28.581Z,14.98
2022-09-15T02:05:06.164Z,14.43
2022-09-15T02:08:08.813Z,14.15
2022-09-15T02:11:06.943Z,12.85
2022-09-15T02:13:48.774Z,14.60
2022-09-15T02:16:23.179Z,17.60
2022-09-15T02:19:10.867Z,12.55
2022-09-15T02:21:54.020Z,12.25
2022-09-15T02:24:28.962Z,12.38
2022-09-15T02:26:57.814Z,12.07
2022-09-15T02:29:27.796Z,13.25
2022-09-15T02:31:58.076Z,16.60
2022-09-15T02:34:35.402Z,14.55
2022-09-15T02:37:04.760Z,12.30
2022-09-15T02:39:36.860Z,14.60
2022-09-15T02:42:04.676Z,14.05
2022-09-15T02:44:32.171Z,13.23
2022-09-15T02:47:02.052Z,13.48
2022-09-15T02:49:29.636Z,13.52
2022-09-15T02:51:56.846Z,14.20
2022-09-15T02:54:24.287Z,14.45
2022-09-15T02:56:51.438Z,12.52
2022-09-15T02:59:19.086Z,12.13
2022-09-15T03:01:46.489Z,14.70
2022-09-15T03:04:13.731Z,15.13
2022-09-15T03:06:40.897Z,16.30
2022-09-15T03:09:08.761Z,14.15
2022-09-15T03:11:36.526Z,13.25
2022-09-15T03:14:05.949Z,10.38
2022-09-15T03:16:34.775Z,13.13
2022-09-15T03:19:02.261Z,13.82
2022-09-15T03:21:30.360Z,13.93
2022-09-15T03:24:01.033Z,12.88
2022-09-15T03:26:28.246Z,12.45
2022-09-15T03:28:55.525Z,12.55
2022-09-15T03:31:23.003Z,12.25
2022-09-15T03:33:50.272Z,12.85
2022-09-15T03:36:17.573Z,12.27
2022-09-15T03:38:45.057Z,12.52
2022-09-15T03:41:13.052Z,13.27
2022-09-15T03:43:40.515Z,13.02
2022-09-15T03:46:10.443Z,17.27
2022-09-15T03:48:40.469Z,14.35
2022-09-15T03:51:10.549Z,13.80
2022-09-15T03:53:40.640Z,13.07
2022-09-15T03:56:27.564Z,12.93
2022-09-15T03:58:55.096Z,14.13
2022-09-15T04:01:23.587Z,16.98
2022-09-15T04:03:51.918Z,16.73
2022-09-15T04:06:20.985Z,14.02
2022-09-15T04:08:49.172Z,18.77
2022-09-15T04:11:17.344Z,13.15
2022-09-15T04:13:45.275Z,14.65
2022-09-15T04:16:17.050Z,18.10
2022-09-15T04:18:44.994Z,15.45
2022-09-15T04:21:15.208Z,17.38
2022-09-15T04:23:43.707Z,16.88
2022-09-15T04:26:27.813Z,16.67
2022-09-15T04:28:55.261Z,21.98
2022-09-15T04:31:22.809Z,23.20
2022-09-15T04:33:53.181Z,21.48
2022-09-15T04:36:24.134Z,17.60
2022-09-15T04:38:52.119Z,19.77
2022-09-15T04:41:20.373Z,20.95
2022-09-15T04:43:47.792Z,16.88
2022-09-15T04:46:15.600Z,15.98
2022-09-15T04:48:46.216Z,16.17
2022-09-15T04:51:19.535Z,18.45
2022-09-15T04:53:46.994Z,19.00
2022-09-15T04:56:22.348Z,29.58
2022-09-15T04:58:58.260Z,27.73
2022-09-15T05:01:30.956Z,67.78
2022-09-15T05:03:58.264Z,66.70
2022-09-15T05:06:27.928Z,62.88
2022-09-15T05:08:57.202Z,61.70
2022-09-15T05:11:25.445Z,52.53
2022-09-15T05:13:52.848Z,45.92
2022-09-15T05:16:23.483Z,30.42
2022-09-15T05:18:52.660Z,26.55
2022-09-15T05:21:22.034Z,25.52
2022-09-15T05:23:51.984Z,20.80
2022-09-15T05:26:23.166Z,19.05
2022-09-15T05:28:50.531Z,21.20
2022-09-15T05:31:21.224Z,19.73
2022-09-15T05:33:50.138Z,19.75
2022-09-15T05:36:19.306Z,15.80
2022-09-15T05:38:46.851Z,21.15
2022-09-15T05:41:17.639Z,23.52
2022-09-15T05:43:47.054Z,18.13
2022-09-15T05:46:16.195Z,19.27
2022-09-15T05:48:44.655Z,21.50
2022-09-15T05:51:12.882Z,17.55
2022-09-15T05:53:40.315Z,15.07
2022-09-15T05:56:11.919Z,16.15
2022-09-15T05:58:44.516Z,18.58
2022-09-15T06:01:16.318Z,19.48
2022-09-15T06:03:43.979Z,21.83
2022-09-15T06:06:14.795Z,18.85
2022-09-15T06:08:50.770Z,22.15
2022-09-15T06:11:22.424Z,22.77
2022-09-15T06:13:50.065Z,20.33
2022-09-15T06:16:22.822Z,20.80
2022-09-15T06:18:52.726Z,16.75
2022-09-15T06:21:26.123Z,20.85
2022-09-15T06:23:55.425Z,16.00
2022-09-15T06:26:23.338Z,17.98
2022-09-15T06:28:55.668Z,14.98
2022-09-15T06:31:24.178Z,16.58
2022-09-15T06:33:54.108Z,17.02
2022-09-15T06:36:27.350Z,20.88
2022-09-15T06:38:55.244Z,21.77
2022-09-15T06:41:22.683Z,17.73
2022-09-15T06:43:50.260Z,18.63
2022-09-15T06:46:23.775Z,22.50
2022-09-15T06:48:52.086Z,16.38
2022-09-15T06:51:22.427Z,14.82
2022-09-15T06:53:50.000Z,17.05
2022-09-15T06:56:20.840Z,17.73
2022-09-15T06:58:51.301Z,21.25
2022-09-15T07:01:31.527Z,18.20
2022-09-15T07:04:01.007Z,17.38
2022-09-15T07:06:30.369Z,19.25
2022-09-15T07:08:58.618Z,14.90
2022-09-15T07:11:26.489Z,18.15
2022-09-15T07:13:53.714Z,22.35
2022-09-15T07:16:22.769Z,18.48
2022-09-15T07:18:50.222Z,17.48
2022-09-15T07:21:20.189Z,18.08
2022-09-15T07:23:48.657Z,16.02
2022-09-15T07:26:24.288Z,17.98
2022-09-15T07:28:56.724Z,14.80
2022-09-15T07:31:26.972Z,12.80
2022-09-15T07:33:54.625Z,17.15
2022-09-15T07:36:22.252Z,23.98
2022-09-15T07:38:50.279Z,20.08
2022-09-15T07:41:20.955Z,19.70
2022-09-15T07:43:53.449Z,16.23
2022-09-15T07:46:22.593Z,18.35
2022-09-15T07:48:52.067Z,15.15
2022-09-15T07:51:19.761Z,17.90
2022-09-15T07:53:48.527Z,18.65
2022-09-15T07:56:20.561Z,15.48
2022-09-15T07:58:48.666Z,16.52
2022-09-15T08:01:17.718Z,17.90
2022-09-15T08:03:52.183Z,16.08
2022-09-15T08:06:23.963Z,13.88
2022-09-15T08:08:55.065Z,11.32
2022-09-15T08:11:26.698Z,12.68
2022-09-15T08:13:54.011Z,11.32
2022-09-15T08:16:23.825Z,9.50
2022-09-15T08:18:54.945Z,9.88
2022-09-15T08:21:23.112Z,12.15
2022-09-15T08:23:52.660Z,7.18
2022-09-15T08:26:23.645Z,8.70
2022-09-15T08:28:53.024Z,6.72
2022-09-15T08:31:20.738Z,6.90
2022-09-15T08:33:50.347Z,9.68
2022-09-15T08:36:17.816Z,10.05
2022-09-15T08:38:46.443Z,7.47
2022-09-15T08:41:25.961Z,6.72
2022-09-15T08:44:02.078Z,7.00
2022-09-15T08:46:41.497Z,4.53
2022-09-15T08:49:50.084Z,5.47
2022-09-15T08:52:26.081Z,7.80
2022-09-15T08:54:57.812Z,8.50
2022-09-15T08:57:26.213Z,5.68
2022-09-15T08:59:55.044Z,6.40
2022-09-15T09:02:56.241Z,18.88
2022-09-15T09:05:50.927Z,7.20
2022-09-15T09:08:39.875Z,5.50
2022-09-15T09:11:19.000Z,5.80
2022-09-15T09:13:54.350Z,6.32
2022-09-15T09:16:48.668Z,9.48
2022-09-15T09:19:53.439Z,8.73
2022-09-15T09:22:27.984Z,5.80
2022-09-15T09:24:58.570Z,9.90
2022-09-15T09:27:33.813Z,7.18
2022-09-15T09:30:16.089Z,8.25
2022-09-15T09:33:18.858Z,7.25
2022-09-15T09:35:50.118Z,13.15
2022-09-15T09:38:24.095Z,7.53
2022-09-15T09:40:52.110Z,6.22
2022-09-15T09:43:20.340Z,8.20
2022-09-15T09:45:47.605Z,7.72
2022-09-15T09:48:25.367Z,6.30
2022-09-15T09:50:52.862Z,10.00
2022-09-15T09:53:29.129Z,6.68
2022-09-15T09:56:17.403Z,6.78
2022-09-15T09:58:45.539Z,5.95
2022-09-15T10:01:18.791Z,8.07
2022-09-15T10:03:46.904Z,7.40
2022-09-15T10:06:18.620Z,11.20
2022-09-15T10:09:04.162Z,5.25
2022-09-15T10:12:04.107Z,9.48
2022-09-15T10:14:37.720Z,5.03
2022-09-15T10:17:09.889Z,9.05
2022-09-15T10:19:43.097Z,6.00
2022-09-15T10:22:20.787Z,8.05
2022-09-15T10:24:50.156Z,6.90
2022-09-15T10:27:17.828Z,6.40
2022-09-15T10:29:45.487Z,8.07
2022-09-15T10:32:25.404Z,6.10
2022-09-15T10:35:01.927Z,5.70
2022-09-15T10:38:09.058Z,5.80
2022-09-15T10:40:55.111Z,4.30
2022-09-15T10:43:25.346Z,5.40
2022-09-15T10:46:08.204Z,5.50
2022-09-15T10:48:48.487Z,6.00
2022-09-15T10:51:37.880Z,6.80
2022-09-15T10:54:23.080Z,8.43
2022-09-15T10:56:58.123Z,6.13
2022-09-15T10:59:56.883Z,5.25
2022-09-15T11:02:33.787Z,5.10
2022-09-15T11:05:23.945Z,6.03
2022-09-15T11:08:10.155Z,3.95
2022-09-15T11:10:56.738Z,6.20
2022-09-15T11:13:56.771Z,5.78
2022-09-15T11:16:24.020Z,5.30
2022-09-15T11:18:57.168Z,4.60
2022-09-15T11:21:34.137Z,4.72
2022-09-15T11:24:23.022Z,5.22
2022-09-15T11:26:56.891Z,5.50
2022-09-15T11:29:49.353Z,5.55
2022-09-15T11:32:26.057Z,3.53
2022-09-15T11:35:02.737Z,3.30
2022-09-15T11:40:18.815Z,3.72
2022-09-15T11:43:24.537Z,6.78
2022-09-15T11:45:56.980Z,8.02
2022-09-15T11:48:30.105Z,4.25
2022-09-15T11:51:02.048Z,4.88
2022-09-15T11:53:35.475Z,4.88
2022-09-15T11:56:28.811Z,4.28
2022-09-15T11:59:22.980Z,8.18
2022-09-15T12:02:19.344Z,5.95
2022-09-15T12:05:21.522Z,5.93
2022-09-15T12:07:55.158Z,4.63
2022-09-15T12:10:31.435Z,6.40
2022-09-15T12:15:27.730Z,5.10
2022-09-15T12:18:27.655Z,6.68
2022-09-15T12:21:28.919Z,3.95
2022-09-15T12:24:11.206Z,6.60
2022-09-15T12:26:39.351Z,5.68
2022-09-15T12:29:21.787Z,4.45
2022-09-15T12:31:50.545Z,5.63
2022-09-15T12:34:38.542Z,5.03
2022-09-15T12:37:13.568Z,4.57
2022-09-15T12:39:41.996Z,3.45
2022-09-15T12:42:25.141Z,4.40
2022-09-15T12:45:00.829Z,4.82
2022-09-15T12:47:31.915Z,4.50
2022-09-15T12:50:17.155Z,5.80
2022-09-15T12:52:49.999Z,3.20
2022-09-15T12:55:35.235Z,5.78
2022-09-15T12:58:10.664Z,2.70
2022-09-15T13:00:49.992Z,6.15
2022-09-15T13:06:10.670Z,4.40
2022-09-15T13:08:38.164Z,3.80
2022-09-15T13:11:38.606Z,4.07
2022-09-15T13:14:11.951Z,4.32
2022-09-15T13:16:45.788Z,4.90
2022-09-15T13:19:36.015Z,4.75
2022-09-15T13:22:12.639Z,5.47
2022-09-15T13:25:02.333Z,4.47
2022-09-15T13:27:38.459Z,4.07
2022-09-15T13:30:09.455Z,3.53
2022-09-15T13:33:06.945Z,3.60
2022-09-15T13:36:11.011Z,5.78
2022-09-15T13:38:47.454Z,6.18
2022-09-15T13:41:31.595Z,2.72
2022-09-15T13:44:37.119Z,3.38
2022-09-15T13:47:16.533Z,4.80
2022-09-15T13:49:55.879Z,4.72
2022-09-15T13:52:46.786Z,6.13
2022-09-15T13:55:24.169Z,6.10
2022-09-15T14:01:08.652Z,4.72
2022-09-15T14:03:40.765Z,4.50
2022-09-15T14:06:38.769Z,4.20
2022-09-15T14:09:30.395Z,4.03
2022-09-15T14:12:01.430Z,5.03
2022-09-15T14:14:34.648Z,4.95
2022-09-15T14:17:02.325Z,5.95
2022-09-15T14:19:33.860Z,4.68
2022-09-15T14:22:21.124Z,5.13
2022-09-15T14:24:51.588Z,5.03
2022-09-15T14:27:25.648Z,6.90
2022-09-15T14:29:55.460Z,5.43
2022-09-15T14:32:23.556Z,8.13
2022-09-15T14:34:51.188Z,7.20
2022-09-15T14:37:27.671Z,3.83
2022-09-15T14:39:57.775Z,3.53
2022-09-15T14:42:32.502Z,5.28
2022-09-15T14:48:16.263Z,6.50
2022-09-15T14:50:45.293Z,3.85
2022-09-15T14:53:25.428Z,5.13
2022-09-15T14:56:18.889Z,6.25
2022-09-15T14:58:55.392Z,6.85
2022-09-15T15:01:29.845Z,6.97
2022-09-15T15:04:00.407Z,5.07
2022-09-15T15:06:49.432Z,9.55
2022-09-15T15:09:38.982Z,7.20
2022-09-15T15:12:25.502Z,8.40
2022-09-15T15:14:57.081Z,8.60
2022-09-15T15:17:27.861Z,4.13
2022-09-15T15:20:10.553Z,6.00
2022-09-15T15:22:39.844Z,9.13
2022-09-15T15:25:37.380Z,7.40
2022-09-15T15:28:06.701Z,7.55
2022-09-15T15:30:43.136Z,6.20
2022-09-15T15:33:19.677Z,6.70
2022-09-15T15:35:48.762Z,7.65
2022-09-15T15:38:19.556Z,7.90
2022-09-15T15:40:47.354Z,5.38
2022-09-15T15:43:24.242Z,11.10
2022-09-15T15:45:58.424Z,6.55
2022-09-15T15:48:32.850Z,9.88
2022-09-15T15:51:05.093Z,12.30
2022-09-15T15:53:32.523Z,15.15
2022-09-15T15:56:00.918Z,8.32
2022-09-15T15:58:28.254Z,8.13
2022-09-15T16:00:56.819Z,5.78
2022-09-15T16:03:25.630Z,8.63
2022-09-15T16:05:57.309Z,7.07
2022-09-15T16:08:38.227Z,7.18
2022-09-15T16:11:09.110Z,9.98
2022-09-15T16:13:36.588Z,7.53
2022-09-15T16:16:14.870Z,6.80
2022-09-15T16:18:42.963Z,8.68
2022-09-15T16:21:20.460Z,7.40
2022-09-15T16:23:48.267Z,7.38
2022-09-15T16:26:18.622Z,8.55
2022-09-15T16:28:46.284Z,7.53
2022-09-15T16:31:15.257Z,5.95
2022-09-15T16:33:44.671Z,6.03
2022-09-15T16:36:17.807Z,7.72
2022-09-15T16:38:46.336Z,6.70
2022-09-15T16:41:19.805Z,6.43
2022-09-15T16:43:47.806Z,10.55
2022-09-15T16:46:15.590Z,7.93
2022-09-15T16:48:44.219Z,8.20
2022-09-15T16:51:29.877Z,8.63
2022-09-15T16:53:58.825Z,9.50
2022-09-15T16:56:27.096Z,9.40
2022-09-15T16:58:59.517Z,6.68
2022-09-15T17:01:27.727Z,6.75
2022-09-15T17:03:55.904Z,7.05
2022-09-15T17:06:23.171Z,8.02
2022-09-15T17:08:50.680Z,10.45
2022-09-15T17:11:20.215Z,9.65
2022-09-15T17:13:47.591Z,9.35
2022-09-15T17:16:19.272Z,9.25
2022-09-15T17:18:47.224Z,9.23
2022-09-15T17:21:16.430Z,9.40
2022-09-15T17:23:46.772Z,9.98
2022-09-15T17:26:23.998Z,12.82
2022-09-15T17:28:55.546Z,8.65
2022-09-15T17:31:24.993Z,10.13
2022-09-15T17:33:52.591Z,10.68
2022-09-15T17:36:20.081Z,8.43
2022-09-15T17:38:48.939Z,6.30
2022-09-15T17:41:19.035Z,9.35
2022-09-15T17:43:47.715Z,9.13
2022-09-15T17:46:15.080Z,9.00
2022-09-15T17:48:42.627Z,8.98
2022-09-15T17:51:15.052Z,7.53
2022-09-15T17:53:43.091Z,10.10
2022-09-15T17:56:10.581Z,8.48
2022-09-15T17:58:37.927Z,8.95
2022-09-15T18:01:05.276Z,8.57
2022-09-15T18:03:37.706Z,9.23
2022-09-15T18:06:08.121Z,11.27
2022-09-15T18:08:36.558Z,8.68
2022-09-15T18:11:05.941Z,11.73
2022-09-15T18:13:34.170Z,8.85
2022-09-15T18:16:07.105Z,6.90
2022-09-15T18:18:34.526Z,5.63
2022-09-15T18:21:07.176Z,7.82
2022-09-15T18:23:34.939Z,8.25
2022-09-15T18:26:02.293Z,9.77
2022-09-15T18:28:29.534Z,8.52
2022-09-15T18:30:56.948Z,8.90
2022-09-15T18:33:26.148Z,6.90
2022-09-15T18:35:56.282Z,7.22
2022-09-15T18:38:23.942Z,9.35
2022-09-15T18:40:54.111Z,8.98
2022-09-15T18:43:22.581Z,8.40
2022-09-15T18:45:50.430Z,7.05
2022-09-15T18:48:17.874Z,9.85
2022-09-15T18:50:45.472Z,8.55
2022-09-15T18:53:14.374Z,6.63
2022-09-15T18:55:42.235Z,7.20
2022-09-15T18:58:10.766Z,12.02
2022-09-15T19:00:38.227Z,5.93
2022-09-15T19:03:08.225Z,7.10
2022-09-15T19:05:35.735Z,5.88
2022-09-15T19:08:04.142Z,5.05
2022-09-15T19:10:31.357Z,5.20
2022-09-15T19:12:58.570Z,6.50
2022-09-15T19:15:25.897Z,5.38
2022-09-15T19:17:53.411Z,3.88
2022-09-15T19:20:20.730Z,4.90
2022-09-15T19:22:48.191Z,3.65
2022-09-15T19:25:15.513Z,5.20
2022-09-15T19:27:43.188Z,5.18
2022-09-15T19:30:12.060Z,5.53
2022-09-15T19:32:40.238Z,8.65
2022-09-15T19:35:08.885Z,6.05
2022-09-15T19:37:39.321Z,7.90
2022-09-15T19:40:09.688Z,8.55
2022-09-15T19:42:38.629Z,4.88
2022-09-15T19:45:07.126Z,7.97
2022-09-15T19:47:34.767Z,7.90
2022-09-15T19:50:03.130Z,7.95
2022-09-15T19:52:30.394Z,8.70
2022-09-15T19:54:57.651Z,8.23
2022-09-15T19:57:25.487Z,9.50
2022-09-15T19:59:52.663Z,6.35
2022-09-15T20:02:22.474Z,10.25
2022-09-15T20:07:35.175Z,5.68
2022-09-15T20:10:02.774Z,5.72
2022-09-15T20:12:31.188Z,8.75
2022-09-15T20:14:58.386Z,7.45
2022-09-15T20:17:28.810Z,5.95
2022-09-15T20:19:56.042Z,6.13
2022-09-15T20:22:23.713Z,8.38
2022-09-15T20:24:51.824Z,5.63
2022-09-15T20:27:19.100Z,8.15
2022-09-15T20:29:46.339Z,5.25
2022-09-15T20:32:14.125Z,5.95
2022-09-15T20:34:41.485Z,7.53
2022-09-15T20:37:08.923Z,8.52
2022-09-15T20:39:36.320Z,7.57
2022-09-15T20:42:03.852Z,8.30
2022-09-15T20:44:31.016Z,7.20
2022-09-15T20:46:58.430Z,7.43
2022-09-15T20:49:25.620Z,8.38
2022-09-15T20:51:53.060Z,8.32
2022-09-15T20:54:20.575Z,10.05
2022-09-15T20:56:47.752Z,5.22
2022-09-15T20:59:15.238Z,10.27
2022-09-15T21:01:43.646Z,5.55
2022-09-15T21:04:11.406Z,7.40
2022-09-15T21:06:39.216Z,4.88
2022-09-15T21:09:07.450Z,6.80
2022-09-15T21:11:35.461Z,5.70
2022-09-15T21:14:03.382Z,5.97
2022-09-15T21:16:30.811Z,4.70
2022-09-15T21:18:58.877Z,3.03
2022-09-15T21:21:29.854Z,6.85
2022-09-15T21:24:06.166Z,4.43
2022-09-15T21:27:00.354Z,5.40
2022-09-15T21:29:28.852Z,6.85
2022-09-15T21:31:56.433Z,5.68
2022-09-15T21:34:24.071Z,5.57
2022-09-15T21:36:54.795Z,4.53
2022-09-15T21:39:22.156Z,9.07
2022-09-15T21:41:50.148Z,5.85
2022-09-15T21:44:17.648Z,7.65
2022-09-15T21:46:47.025Z,4.78
2022-09-15T21:49:15.041Z,4.32
2022-09-15T21:51:42.508Z,5.15
2022-09-15T21:54:10.360Z,5.50
2022-09-15T21:56:37.900Z,5.97
2022-09-15T21:59:05.721Z,5.47
2022-09-15T22:01:33.443Z,5.20
2022-09-15T22:04:04.102Z,6.65
2022-09-15T22:06:34.375Z,6.65
2022-09-15T22:09:04.516Z,5.10
2022-09-15T22:11:32.206Z,6.13
2022-09-15T22:14:01.874Z,5.68
2022-09-15T22:16:29.487Z,5.20
2022-09-15T22:18:57.188Z,6.65
2022-09-15T22:21:28.782Z,8.90
2022-09-15T22:23:57.556Z,5.80
2022-09-15T22:26:29.528Z,7.35
2022-09-15T22:28:59.319Z,5.28
2022-09-15T22:31:27.729Z,5.53
2022-09-15T22:33:55.624Z,6.03
2022-09-15T22:36:29.341Z,5.53
2022-09-15T22:39:04.146Z,4.60
2022-09-15T22:41:37.016Z,8.70
2022-09-15T22:44:05.893Z,5.38
2022-09-15T22:46:33.540Z,6.75
2022-09-15T22:49:01.444Z,7.47
2022-09-15T22:51:29.121Z,8.45
2022-09-15T22:53:57.383Z,7.15
2022-09-15T22:56:26.367Z,7.43
2022-09-15T22:58:54.585Z,6.65
2022-09-15T23:01:27.038Z,18.77
2022-09-15T23:03:59.213Z,7.03
2022-09-15T23:06:29.487Z,8.90
2022-09-15T23:08:59.427Z,8.50
2022-09-15T23:11:28.876Z,7.05
2022-09-15T23:13:56.649Z,7.25
2022-09-15T23:16:25.582Z,5.68
2022-09-15T23:18:54.517Z,6.85
2022-09-15T23:21:22.340Z,5.78
2022-09-15T23:23:50.453Z,5.30
2022-09-15T23:26:19.811Z,7.75
2022-09-15T23:28:49.189Z,6.57
2022-09-15T23:31:16.940Z,6.93
2022-09-15T23:33:44.463Z,6.93
2022-09-15T23:36:15.430Z,7.03
2022-09-15T23:38:44.512Z,7.15
2022-09-15T23:41:12.847Z,8.40
2022-09-15T23:43:40.678Z,9.27
2022-09-15T23:46:08.197Z,7.90
2022-09-15T23:48:35.732Z,7.03
2022-09-15T23:51:03.982Z,6.82
2022-09-15T23:53:31.372Z,6.15
2022-09-15T23:55:58.881Z,11.48
2022-09-15T23:58:26.392Z,12.02
